Time;durP1;ratioP1;P1;durP2;ratioP2;P2;SDS_P1;SDS_P2;PMS_P1;PMS_P2;Temp;Humidity;BMP_temperature;BMP_pressure;BME280_temperature;BME280_humidity;BME280_pressure;Samples;Min_cycle;Max_cycle;Signal;HPM_P1;HPM_P2
2021/05/04 00:01:22;;;;;;;7.95;7.25;;;7.70;96.90;;;;;;5092157;28;20633;-42
2021/05/04 00:03:48;;;;;;;9.00;8.10;;;7.80;97.00;;;;;;5092401;28;20621;-42
2021/05/04 00:06:15;;;;;;;7.97;7.05;;;7.80;97.00;;;;;;5091971;28;20317;-44
2021/05/04 00:08:42;;;;;;;7.93;7.13;;;7.80;97.00;;;;;;5092023;28;20274;-43
2021/05/04 00:11:09;;;;;;;8.40;7.70;;;7.80;97.10;;;;;;5092113;28;20217;-43
2021/05/04 00:13:36;;;;;;;7.47;6.78;;;7.70;97.20;;;;;;5092186;28;20265;-42
2021/05/04 00:16:05;;;;;;;7.28;6.68;;;7.70;97.30;;;;;;5092048;28;20656;-49
2021/05/04 00:18:32;;;;;;;8.20;6.93;;;7.60;97.30;;;;;;5092482;28;20346;-45
2021/05/04 00:20:59;;;;;;;7.88;7.15;;;7.60;97.50;;;;;;5092184;28;20215;-43
2021/05/04 00:23:26;;;;;;;8.07;6.97;;;7.60;97.60;;;;;;5091654;28;20210;-42
2021/05/04 00:25:53;;;;;;;6.93;6.32;;;7.60;97.70;;;;;;5091829;28;20210;-43
2021/05/04 00:28:20;;;;;;;7.55;6.75;;;7.50;97.60;;;;;;5091763;28;20306;-43
2021/05/04 00:30:56;;;;;;;7.32;6.68;;;7.50;97.70;;;;;;5094734;28;20206;-44
2021/05/04 00:33:24;;;;;;;8.02;7.28;;;7.50;97.80;;;;;;5096425;28;20578;-44
2021/05/04 00:35:51;;;;;;;8.35;7.57;;;7.40;97.90;;;;;;5095903;28;20207;-44
2021/05/04 00:38:19;;;;;;;6.63;6.13;;;7.30;98.10;;;;;;5095919;28;20221;-45
2021/05/04 00:40:45;;;;;;;7.55;6.85;;;7.30;98.20;;;;;;5095917;28;20293;-46
2021/05/04 00:43:12;;;;;;;6.72;6.13;;;7.20;98.20;;;;;;5095720;28;20220;-42
2021/05/04 00:45:40;;;;;;;7.43;6.75;;;7.20;98.30;;;;;;5095721;28;20754;-42
2021/05/04 00:48:07;;;;;;;8.40;7.63;;;7.20;98.30;;;;;;5095759;28;20234;-42
2021/05/04 00:50:35;;;;;;;7.72;7.03;;;7.20;98.40;;;;;;5095701;28;20392;-43
2021/05/04 00:53:02;;;;;;;7.85;7.15;;;7.20;98.40;;;;;;5095641;28;20301;-43
2021/05/04 00:55:31;;;;;;;7.72;7.00;;;7.10;98.40;;;;;;5095825;28;20214;-42
2021/05/04 00:58:00;;;;;;;8.30;7.50;;;7.10;98.40;;;;;;5095496;28;20230;-43
2021/05/04 01:00:27;;;;;;;7.75;7.05;;;7.10;98.50;;;;;;5095751;28;20206;-43
2021/05/04 01:02:55;;;;;;;7.15;6.55;;;7.10;98.50;;;;;;5095468;28;20213;-41
2021/05/04 01:05:22;;;;;;;8.38;7.53;;;7.10;98.60;;;;;;5095219;28;20583;-42
2021/05/04 01:07:50;;;;;;;8.05;7.30;;;7.00;98.60;;;;;;5095288;28;20317;-43
2021/05/04 01:10:17;;;;;;;8.45;7.60;;;7.00;98.70;;;;;;5083262;28;20265;-44
2021/05/04 01:12:44;;;;;;;11.35;8.82;;;6.90;98.80;;;;;;5074974;28;20573;-41
2021/05/04 01:15:12;;;;;;;8.80;7.90;;;6.90;98.90;;;;;;5075163;28;20631;-42
2021/05/04 01:17:39;;;;;;;22.65;19.10;;;6.90;98.90;;;;;;5075152;28;20287;-41
2021/05/04 01:20:07;;;;;;;8.48;7.68;;;6.90;99.00;;;;;;5074872;28;20314;-41
2021/05/04 01:22:35;;;;;;;8.05;7.25;;;6.90;98.90;;;;;;5075133;28;20306;-43
2021/05/04 01:25:03;;;;;;;7.80;7.07;;;6.90;98.90;;;;;;5081101;28;20657;-43
2021/05/04 01:27:30;;;;;;;7.28;6.53;;;6.90;99.00;;;;;;5095170;28;20568;-43
2021/05/04 01:29:56;;;;;;;10.65;9.63;;;6.90;99.00;;;;;;5095248;28;20221;-44
2021/05/04 01:32:24;;;;;;;8.70;7.88;;;6.90;99.10;;;;;;5094935;28;20736;-45
2021/05/04 01:34:51;;;;;;;7.63;6.93;;;6.80;99.10;;;;;;5094961;28;20211;-43
2021/05/04 01:37:18;;;;;;;7.80;7.00;;;6.80;99.20;;;;;;5095252;28;20294;-43
2021/05/04 01:39:47;;;;;;;7.55;6.85;;;6.70;99.50;;;;;;5095039;28;20506;-44
2021/05/04 01:42:17;;;;;;;8.10;7.30;;;6.70;99.30;;;;;;5094260;28;20643;-44
2021/05/04 01:44:45;;;;;;;9.80;8.80;;;6.70;99.30;;;;;;5094894;28;20212;-43
2021/05/04 01:47:12;;;;;;;7.53;6.82;;;6.60;99.40;;;;;;5094557;28;20702;-42
2021/05/04 01:49:41;;;;;;;8.43;7.57;;;6.60;99.50;;;;;;5094966;28;20218;-42
2021/05/04 01:52:10;;;;;;;8.43;7.47;;;6.60;99.50;;;;;;5094979;28;20206;-42
2021/05/04 01:54:38;;;;;;;7.97;7.18;;;6.60;99.60;;;;;;5094804;28;20234;-41
2021/05/04 01:57:06;;;;;;;7.93;7.22;;;6.60;99.70;;;;;;5094703;28;20205;-42
2021/05/04 01:59:33;;;;;;;7.10;6.30;;;6.60;99.70;;;;;;5094500;28;20665;-45
2021/05/04 02:02:01;;;;;;;8.35;6.95;;;6.50;99.70;;;;;;5094626;28;20302;-42
2021/05/04 02:04:30;;;;;;;9.55;7.65;;;6.50;99.80;;;;;;5094717;28;20218;-41
2021/05/04 02:06:58;;;;;;;7.35;6.65;;;6.50;99.70;;;;;;5094634;28;20257;-44
2021/05/04 02:09:25;;;;;;;15.07;11.27;;;6.60;99.80;;;;;;5094369;28;20207;-42
2021/05/04 02:11:52;;;;;;;7.82;6.80;;;6.60;99.80;;;;;;5094318;28;20203;-44
2021/05/04 02:14:20;;;;;;;6.20;5.60;;;6.60;99.70;;;;;;5094295;28;20284;-42
2021/05/04 02:16:47;;;;;;;16.70;14.55;;;6.60;99.80;;;;;;5094477;28;20597;-42
2021/05/04 02:19:14;;;;;;;7.43;6.43;;;6.60;99.80;;;;;;5094249;28;20213;-42
2021/05/04 02:21:41;;;;;;;11.80;10.32;;;6.60;99.80;;;;;;5094360;28;20211;-42
2021/05/04 02:24:08;;;;;;;6.55;5.85;;;6.60;99.80;;;;;;5094228;28;20297;-42
2021/05/04 02:26:35;;;;;;;6.22;5.65;;;6.60;99.80;;;;;;5094104;28;20263;-43
2021/05/04 02:29:03;;;;;;;6.70;6.10;;;6.60;99.90;;;;;;5094201;28;20671;-42
2021/05/04 02:31:30;;;;;;;7.07;6.47;;;6.60;99.90;;;;;;5094085;28;20614;-41
2021/05/04 02:33:58;;;;;;;6.05;5.47;;;6.70;99.90;;;;;;5092905;28;20211;-43
2021/05/04 02:36:25;;;;;;;5.82;5.38;;;6.70;99.90;;;;;;5094056;28;20293;-43
2021/05/04 02:38:52;;;;;;;5.25;4.70;;;6.70;99.90;;;;;;5093909;28;20290;-42
2021/05/04 02:41:18;;;;;;;7.13;6.43;;;6.60;99.90;;;;;;5093835;28;20217;-43
2021/05/04 02:43:45;;;;;;;5.13;4.63;;;6.60;99.90;;;;;;5094015;28;20213;-43
2021/05/04 02:46:12;;;;;;;8.63;6.25;;;6.60;99.90;;;;;;5093718;28;20203;-42
2021/05/04 02:48:42;;;;;;;11.35;7.95;;;6.50;99.90;;;;;;5093867;28;20210;-43
2021/05/04 02:51:11;;;;;;;13.20;8.63;;;6.50;99.90;;;;;;5093491;28;20305;-41
2021/05/04 02:53:39;;;;;;;10.52;7.35;;;6.50;99.90;;;;;;5092430;28;20215;-43
2021/05/04 02:56:07;;;;;;;9.65;7.28;;;6.60;99.90;;;;;;5093463;28;20211;-42
2021/05/04 02:58:35;;;;;;;11.02;6.68;;;6.50;99.90;;;;;;5093414;28;20222;-43
2021/05/04 03:01:02;;;;;;;7.05;5.95;;;6.50;99.90;;;;;;5093646;28;20306;-42
2021/05/04 03:03:29;;;;;;;6.75;6.15;;;6.50;99.90;;;;;;5093427;28;20630;-42
2021/05/04 03:05:57;;;;;;;8.20;6.40;;;6.50;99.90;;;;;;5093579;28;20224;-42
2021/05/04 03:08:24;;;;;;;7.45;5.47;;;6.50;99.90;;;;;;5093224;28;20317;-45
2021/05/04 03:10:51;;;;;;;6.60;5.90;;;6.50;99.90;;;;;;5093508;28;20298;-43
2021/05/04 03:13:22;;;;;;;5.82;5.28;;;6.50;99.90;;;;;;5093195;28;20321;-42
2021/05/04 03:15:49;;;;;;;5.43;4.93;;;6.50;99.90;;;;;;5093462;28;20226;-46
2021/05/04 03:18:17;;;;;;;6.53;5.20;;;6.40;99.90;;;;;;5093219;28;20293;-43
2021/05/04 03:20:45;;;;;;;5.85;5.20;;;6.40;99.90;;;;;;5092970;28;20268;-43
2021/05/04 03:23:13;;;;;;;4.95;4.55;;;6.30;99.90;;;;;;5093378;28;20689;-44
2021/05/04 03:25:42;;;;;;;5.70;5.10;;;6.30;99.90;;;;;;5093184;28;20206;-51
2021/05/04 03:28:09;;;;;;;5.50;5.00;;;6.20;99.90;;;;;;5092903;28;20772;-44
2021/05/04 03:30:37;;;;;;;6.50;4.82;;;6.20;99.90;;;;;;5093085;28;20210;-43
2021/05/04 03:33:05;;;;;;;5.47;4.72;;;6.20;99.90;;;;;;5092866;28;20706;-43
2021/05/04 03:35:32;;;;;;;5.40;5.00;;;6.20;99.90;;;;;;5092728;28;20311;-43
2021/05/04 03:38:00;;;;;;;5.38;4.88;;;6.20;99.90;;;;;;5093024;28;20297;-43
2021/05/04 03:40:28;;;;;;;5.22;4.82;;;6.20;99.90;;;;;;5092816;28;20206;-44
2021/05/04 03:42:55;;;;;;;5.50;5.00;;;6.20;99.90;;;;;;5092826;28;20256;-43
2021/05/04 03:45:22;;;;;;;5.90;5.40;;;6.20;99.90;;;;;;5092667;28;20665;-43
2021/05/04 03:47:50;;;;;;;5.63;5.13;;;6.20;99.90;;;;;;5092468;28;20640;-47
2021/05/04 03:50:20;;;;;;;4.90;4.40;;;6.10;99.90;;;;;;5092752;28;20234;-44
2021/05/04 03:52:48;;;;;;;5.90;5.30;;;6.10;99.90;;;;;;5093105;28;20335;-43
2021/05/04 03:55:15;;;;;;;5.88;4.68;;;6.20;99.90;;;;;;5092517;28;20241;-43
2021/05/04 03:57:43;;;;;;;6.60;5.20;;;6.20;99.90;;;;;;5092538;28;20253;-44
2021/05/04 04:00:12;;;;;;;6.50;5.90;;;6.30;99.90;;;;;;5092353;28;20293;-44
2021/05/04 04:02:39;;;;;;;5.20;4.70;;;6.30;99.90;;;;;;5091952;28;20672;-43
2021/05/04 04:05:07;;;;;;;6.88;5.63;;;6.30;99.90;;;;;;5091815;28;20260;-43
2021/05/04 04:07:36;;;;;;;6.00;5.38;;;6.40;99.90;;;;;;5091956;28;20237;-40
2021/05/04 04:10:04;;;;;;;7.95;5.45;;;6.40;99.90;;;;;;5092198;28;20230;-44
2021/05/04 04:12:31;;;;;;;6.25;5.15;;;6.40;99.90;;;;;;5092080;28;20729;-48
2021/05/04 04:14:59;;;;;;;5.85;5.28;;;6.50;99.90;;;;;;5091885;28;20692;-42
2021/05/04 04:17:26;;;;;;;6.78;6.10;;;6.50;99.90;;;;;;5092338;28;20290;-42
2021/05/04 04:19:53;;;;;;;7.35;6.63;;;6.60;99.90;;;;;;5092133;28;20575;-44
2021/05/04 04:22:20;;;;;;;7.10;6.47;;;6.70;99.90;;;;;;5091925;28;20229;-43
2021/05/04 04:24:47;;;;;;;5.93;5.53;;;6.80;99.90;;;;;;5091944;28;20289;-42
2021/05/04 04:27:14;;;;;;;7.28;6.45;;;6.90;99.90;;;;;;5091885;28;20340;-43
2021/05/04 04:29:46;;;;;;;6.10;5.60;;;7.10;99.90;;;;;;5092288;28;20218;-43
2021/05/04 04:32:14;;;;;;;7.47;6.78;;;7.20;99.90;;;;;;5092010;28;20238;-43
2021/05/04 04:34:40;;;;;;;5.75;5.18;;;7.30;99.90;;;;;;5092348;28;20685;-43
2021/05/04 04:37:07;;;;;;;5.65;5.07;;;7.40;99.90;;;;;;5092114;28;20293;-43
2021/05/04 04:39:35;;;;;;;6.38;5.40;;;7.50;99.90;;;;;;5092544;28;20230;-43
2021/05/04 04:42:04;;;;;;;5.57;5.00;;;7.60;99.90;;;;;;5091999;28;20210;-44
2021/05/04 04:44:31;;;;;;;5.43;5.03;;;7.70;99.80;;;;;;5092208;28;20293;-48
2021/05/04 04:46:58;;;;;;;5.68;5.07;;;7.90;99.70;;;;;;5091969;28;20280;-44
2021/05/04 04:49:27;;;;;;;6.10;5.60;;;8.00;99.50;;;;;;5092164;28;20657;-43
2021/05/04 04:51:54;;;;;;;7.97;6.38;;;8.10;99.90;;;;;;5091819;28;20306;-43
2021/05/04 04:54:21;;;;;;;7.88;5.13;;;8.10;99.10;;;;;;5091925;28;20293;-48
2021/05/04 04:56:47;;;;;;;6.35;5.45;;;8.30;99.00;;;;;;5091874;28;20731;-47
2021/05/04 04:59:14;;;;;;;6.30;5.38;;;8.40;98.80;;;;;;5091980;28;20307;-46
2021/05/04 05:01:41;;;;;;;5.78;5.28;;;8.50;98.60;;;;;;5092075;28;20207;-46
2021/05/04 05:04:08;;;;;;;5.82;5.32;;;8.60;98.30;;;;;;5091977;28;20202;-45
2021/05/04 05:06:36;;;;;;;7.22;6.28;;;8.70;98.20;;;;;;5091685;28;20236;-46
2021/05/04 05:09:07;;;;;;;7.35;6.20;;;8.80;98.00;;;;;;5091640;28;20207;-44
2021/05/04 05:11:35;;;;;;;6.40;5.80;;;8.90;97.90;;;;;;5090348;28;20203;-44
2021/05/04 05:14:03;;;;;;;8.52;5.60;;;9.00;97.60;;;;;;5091748;28;20274;-46
2021/05/04 05:16:31;;;;;;;5.32;4.82;;;9.10;97.40;;;;;;5091656;28;20289;-49
2021/05/04 05:18:57;;;;;;;6.22;5.28;;;9.20;97.40;;;;;;5095031;28;20693;-45
2021/05/04 05:21:25;;;;;;;6.28;4.95;;;9.30;97.10;;;;;;5095153;28;20229;-45
2021/05/04 05:23:54;;;;;;;6.60;5.13;;;9.30;96.90;;;;;;5095302;28;20214;-44
2021/05/04 05:26:23;;;;;;;5.07;4.40;;;9.40;96.80;;;;;;5095224;28;20625;-48
2021/05/04 05:28:53;;;;;;;6.32;4.88;;;9.50;96.50;;;;;;5095334;28;20238;-48
2021/05/04 05:31:21;;;;;;;4.90;4.25;;;9.60;96.20;;;;;;5095153;28;20775;-46
2021/05/04 05:33:48;;;;;;;6.70;4.40;;;9.70;96.00;;;;;;5095046;28;20289;-45
2021/05/04 05:36:15;;;;;;;5.80;4.15;;;9.80;95.80;;;;;;5094967;28;20232;-47
2021/05/04 05:38:42;;;;;;;4.57;4.18;;;9.90;95.60;;;;;;5095306;28;20234;-46
2021/05/04 05:41:10;;;;;;;4.30;3.95;;;9.90;95.70;;;;;;5095150;28;20207;-48
2021/05/04 05:43:37;;;;;;;4.45;3.83;;;10.00;95.30;;;;;;5094891;28;20725;-49
2021/05/04 05:46:04;;;;;;;4.82;4.43;;;10.00;95.10;;;;;;5094895;28;20206;-48
2021/05/04 05:48:31;;;;;;;4.97;4.20;;;10.00;95.00;;;;;;5094772;28;20309;-43
2021/05/04 05:50:58;;;;;;;5.07;4.13;;;10.10;95.00;;;;;;5094767;28;20208;-43
2021/05/04 05:53:25;;;;;;;6.55;5.95;;;10.10;94.80;;;;;;5094922;28;20214;-43
2021/05/04 05:55:52;;;;;;;6.60;4.22;;;10.20;94.70;;;;;;5093722;28;20268;-44
2021/05/04 05:58:20;;;;;;;23.23;13.70;;;10.30;94.50;;;;;;5094278;28;20199;-45
2021/05/04 06:00:47;;;;;;;4.93;4.43;;;10.40;94.30;;;;;;5094526;28;20672;-46
2021/05/04 06:03:14;;;;;;;5.53;4.65;;;10.50;94.10;;;;;;5094490;28;20293;-47
2021/05/04 06:05:41;;;;;;;4.60;4.30;;;10.50;93.90;;;;;;5094781;28;20313;-45
2021/05/04 06:08:08;;;;;;;5.60;3.83;;;10.70;93.70;;;;;;5094606;28;20233;-47
2021/05/04 06:10:35;;;;;;;5.05;3.20;;;10.70;93.50;;;;;;5094632;28;20216;-42
2021/05/04 06:13:05;;;;;;;4.32;3.97;;;10.90;93.30;;;;;;5092871;28;20250;-45
2021/05/04 06:15:35;;;;;;;3.92;3.63;;;11.00;93.20;;;;;;5094098;28;20214;-45
2021/05/04 06:18:02;;;;;;;5.88;3.38;;;11.00;92.90;;;;;;5093883;28;20680;-45
2021/05/04 06:20:29;;;;;;;7.90;5.68;;;11.10;92.70;;;;;;5094185;28;20283;-44
2021/05/04 06:22:56;;;;;;;6.07;3.72;;;11.20;92.40;;;;;;5093550;28;20264;-47
2021/05/04 06:25:23;;;;;;;10.90;5.82;;;11.20;92.30;;;;;;5093936;28;20293;-43
2021/05/04 06:27:51;;;;;;;5.25;3.60;;;11.30;92.00;;;;;;5093440;28;20731;-41
2021/05/04 06:30:18;;;;;;;5.82;3.88;;;11.40;92.00;;;;;;5093571;28;20301;-44
2021/05/04 06:32:47;;;;;;;3.92;3.55;;;11.50;91.80;;;;;;5093629;28;20210;-44
2021/05/04 06:35:18;;;;;;;4.43;4.03;;;11.60;91.50;;;;;;5093834;28;20281;-43
2021/05/04 06:37:47;;;;;;;6.60;3.60;;;11.70;91.70;;;;;;5093734;28;20226;-41
2021/05/04 06:40:15;;;;;;;5.53;3.40;;;11.70;91.30;;;;;;5093654;28;20289;-49
2021/05/04 06:42:44;;;;;;;4.63;2.90;;;11.80;91.00;;;;;;5093472;28;20623;-44
2021/05/04 06:45:11;;;;;;;11.02;5.80;;;11.90;90.90;;;;;;5093751;28;20297;-44
2021/05/04 06:47:39;;;;;;;3.75;3.35;;;12.10;90.70;;;;;;5093135;28;20344;-46
2021/05/04 06:50:08;;;;;;;4.80;3.00;;;12.30;90.30;;;;;;5093460;28;20696;-44
2021/05/04 06:52:34;;;;;;;11.88;3.80;;;12.40;88.80;;;;;;5093215;28;20293;-50
2021/05/04 06:55:02;;;;;;;5.93;3.03;;;12.50;88.20;;;;;;5093217;28;20235;-41
2021/05/04 06:57:29;;;;;;;3.30;2.90;;;12.60;87.60;;;;;;5093248;28;20253;-41
2021/05/04 06:59:56;;;;;;;5.28;2.72;;;12.80;86.20;;;;;;5093381;28;20206;-42
2021/05/04 07:02:23;;;;;;;4.13;2.90;;;12.90;85.20;;;;;;5093134;28;20209;-41
2021/05/04 07:04:50;;;;;;;6.80;5.38;;;13.00;84.10;;;;;;5093045;28;20217;-41
2021/05/04 07:07:18;;;;;;;3.55;2.75;;;13.10;83.30;;;;;;5092995;28;20313;-46
2021/05/04 07:09:45;;;;;;;3.55;2.50;;;13.20;82.40;;;;;;5093007;28;20297;-42
2021/05/04 07:12:12;;;;;;;3.38;2.63;;;13.20;81.50;;;;;;5092737;28;20314;-44
2021/05/04 07:14:39;;;;;;;4.15;3.08;;;13.30;81.10;;;;;;5092693;28;20238;-43
2021/05/04 07:17:07;;;;;;;2.50;2.30;;;13.30;80.20;;;;;;5092858;28;20304;-44
2021/05/04 07:19:37;;;;;;;2.65;2.42;;;13.40;80.20;;;;;;5093023;28;20661;-46
2021/05/04 07:22:05;;;;;;;5.13;2.65;;;13.40;79.80;;;;;;5092888;28;20632;-46
2021/05/04 07:24:33;;;;;;;19.33;14.25;;;13.50;79.30;;;;;;5092750;28;20203;-45
2021/05/04 07:27:01;;;;;;;6.63;5.97;;;13.60;78.50;;;;;;5091622;28;20712;-43
2021/05/04 07:29:28;;;;;;;5.63;3.58;;;13.70;78.20;;;;;;5092847;28;20293;-44
2021/05/04 07:31:55;;;;;;;4.45;3.17;;;13.80;77.50;;;;;;5092703;28;20207;-47
2021/05/04 07:34:22;;;;;;;3.53;2.92;;;13.90;76.80;;;;;;5092666;28;20568;-43
2021/05/04 07:36:48;;;;;;;7.10;6.15;;;14.10;75.80;;;;;;5092553;28;20233;-47
2021/05/04 07:39:15;;;;;;;5.57;2.88;;;14.20;75.20;;;;;;5092151;28;20241;-42
2021/05/04 07:41:44;;;;;;;3.00;2.80;;;14.30;74.50;;;;;;5092170;28;20688;-43
2021/05/04 07:44:11;;;;;;;3.97;3.58;;;14.40;73.70;;;;;;5092605;28;20302;-42
2021/05/04 07:46:38;;;;;;;6.13;2.70;;;14.50;72.70;;;;;;5092390;28;20633;-46
2021/05/04 07:49:07;;;;;;;4.00;2.60;;;14.50;72.80;;;;;;5092343;28;20288;-44
2021/05/04 07:51:38;;;;;;;3.53;3.22;;;14.60;72.50;;;;;;5092096;28;20298;-43
2021/05/04 07:54:06;;;;;;;4.35;2.72;;;14.60;72.30;;;;;;5092416;28;20203;-46
2021/05/04 07:56:33;;;;;;;4.28;2.78;;;14.70;71.90;;;;;;5092310;28;20286;-43
2021/05/04 07:59:01;;;;;;;9.23;2.60;;;14.70;71.50;;;;;;5092029;28;20246;-44
2021/05/04 08:01:28;;;;;;;3.60;2.90;;;14.70;71.90;;;;;;5092157;28;20578;-43
2021/05/04 08:03:55;;;;;;;2.72;2.53;;;14.80;71.80;;;;;;5092110;28;20206;-42
2021/05/04 08:06:22;;;;;;;3.17;2.50;;;14.90;71.20;;;;;;5091894;28;20211;-44
2021/05/04 08:08:49;;;;;;;3.38;3.03;;;15.00;70.70;;;;;;5092136;28;20230;-47
2021/05/04 08:11:16;;;;;;;4.00;2.40;;;15.00;70.30;;;;;;5092107;28;20548;-44
2021/05/04 08:13:44;;;;;;;2.65;2.45;;;15.00;70.40;;;;;;5091795;28;20317;-47
2021/05/04 08:16:14;;;;;;;4.55;2.70;;;15.00;70.00;;;;;;5091967;28;20211;-45
2021/05/04 08:18:43;;;;;;;2.70;2.50;;;15.10;69.70;;;;;;5091993;28;20213;-46
2021/05/04 08:21:10;;;;;;;3.05;2.60;;;15.10;69.50;;;;;;5092153;28;20265;-49
2021/05/04 08:23:37;;;;;;;2.97;2.38;;;15.20;68.80;;;;;;5092012;28;20234;-45
2021/05/04 08:26:04;;;;;;;3.70;2.25;;;15.30;68.30;;;;;;5092021;28;20289;-48
2021/05/04 08:28:31;;;;;;;2.85;2.65;;;15.40;68.30;;;;;;5091712;28;20788;-46
2021/05/04 08:30:59;;;;;;;7.07;2.97;;;15.50;68.10;;;;;;5091933;28;20312;-43
2021/05/04 08:33:26;;;;;;;7.60;3.00;;;15.60;67.40;;;;;;5091792;28;20228;-44
2021/05/04 08:35:53;;;;;;;5.68;3.65;;;15.70;67.00;;;;;;5091668;28;20302;-47
2021/05/04 08:38:20;;;;;;;4.43;2.50;;;15.90;66.80;;;;;;5091642;28;20246;-47
2021/05/04 08:40:47;;;;;;;4.32;2.78;;;16.10;65.70;;;;;;5091447;28;20293;-43
2021/05/04 08:43:20;;;;;;;5.43;3.22;;;16.20;65.60;;;;;;5091329;28;20293;-48
2021/05/04 08:45:54;;;;;;;4.10;2.40;;;16.30;65.00;;;;;;5091491;28;20329;-45
2021/05/04 08:48:22;;;;;;;9.68;2.50;;;16.40;64.00;;;;;;5091170;28;20266;-45
2021/05/04 08:50:51;;;;;;;5.28;2.42;;;16.40;63.50;;;;;;5091978;28;20688;-47
2021/05/04 08:53:38;;;;;;;3.55;2.38;;;16.40;63.10;;;;;;5096004;28;20203;-45
2021/05/04 08:56:08;;;;;;;2.70;2.38;;;16.50;62.90;;;;;;5095428;28;20213;-45
2021/05/04 08:58:35;;;;;;;2.72;2.17;;;16.50;62.80;;;;;;5095711;28;20294;-46
2021/05/04 09:01:13;;;;;;;7.75;3.65;;;16.50;62.20;;;;;;5095542;28;20284;-52
2021/05/04 09:03:43;;;;;;;4.63;2.40;;;16.50;62.00;;;;;;5095315;28;20252;-49
2021/05/04 09:06:15;;;;;;;9.98;6.28;;;16.50;62.10;;;;;;5095156;28;20305;-47
2021/05/04 09:08:45;;;;;;;2.92;2.28;;;16.60;62.20;;;;;;5095367;28;20309;-51
2021/05/04 09:11:36;;;;;;;5.05;2.40;;;16.60;61.70;;;;;;5095360;28;20301;-50
2021/05/04 09:14:09;;;;;;;5.00;3.05;;;16.60;61.90;;;;;;5095111;28;20234;-46
2021/05/04 09:16:46;;;;;;;3.95;2.33;;;16.80;61.80;;;;;;5095110;28;20289;-47
2021/05/04 09:19:21;;;;;;;4.47;2.60;;;16.90;61.70;;;;;;5095157;28;20672;-50
2021/05/04 09:21:52;;;;;;;4.75;2.10;;;16.90;61.00;;;;;;5095135;28;20574;-45
2021/05/04 09:24:25;;;;;;;2.58;2.20;;;16.90;61.00;;;;;;5095027;28;20669;-46
2021/05/04 09:27:00;;;;;;;6.10;3.70;;;17.00;60.70;;;;;;5095077;28;20264;-46
2021/05/04 09:29:29;;;;;;;8.18;2.28;;;17.10;60.70;;;;;;5094757;28;20708;-46
2021/05/04 09:32:09;;;;;;;7.00;2.47;;;17.10;60.30;;;;;;5094987;28;20210;-46
2021/05/04 09:34:43;;;;;;;4.97;1.98;;;17.10;59.90;;;;;;5094778;28;20632;-47
2021/05/04 09:37:33;;;;;;;2.65;1.83;;;17.00;59.60;;;;;;5094974;28;20256;-45
2021/05/04 09:40:24;;;;;;;4.60;2.08;;;16.90;59.80;;;;;;5094843;28;20750;-45
2021/05/04 09:43:10;;;;;;;3.13;1.80;;;16.90;60.00;;;;;;5094840;28;20603;-49
2021/05/04 09:45:39;;;;;;;5.53;2.05;;;16.90;60.10;;;;;;5094843;28;20294;-47
2021/05/04 09:48:12;;;;;;;2.78;2.00;;;16.90;60.70;;;;;;5094855;28;20233;-46
2021/05/04 09:50:51;;;;;;;3.92;1.88;;;17.00;60.20;;;;;;5094749;28;20242;-48
2021/05/04 09:53:23;;;;;;;5.75;2.15;;;17.10;60.40;;;;;;5094798;28;20242;-50
2021/05/04 09:55:56;;;;;;;3.95;3.55;;;17.20;60.20;;;;;;5094654;28;20310;-50
2021/05/04 09:58:37;;;;;;;4.50;3.03;;;17.40;60.00;;;;;;5094463;28;20237;-48
2021/05/04 10:01:08;;;;;;;2.00;1.80;;;17.70;59.60;;;;;;5094337;28;20685;-45
2021/05/04 10:03:36;;;;;;;2.88;1.95;;;17.80;60.00;;;;;;5093937;28;20230;-49
2021/05/04 10:06:05;;;;;;;2.92;2.10;;;18.00;59.20;;;;;;5094371;28;20576;-47
2021/05/04 10:08:34;;;;;;;2.13;1.90;;;18.10;59.10;;;;;;5094413;28;20281;-50
2021/05/04 10:11:04;;;;;;;3.30;2.38;;;18.20;59.00;;;;;;5093900;28;20298;-50
2021/05/04 10:13:33;;;;;;;2.28;2.00;;;18.40;58.90;;;;;;5094151;28;20321;-47
2021/05/04 10:16:01;;;;;;;4.00;1.95;;;18.40;58.60;;;;;;5094181;28;20289;-49
2021/05/04 10:18:28;;;;;;;3.95;2.85;;;18.30;58.50;;;;;;5094468;28;20206;-48
2021/05/04 10:20:58;;;;;;;2.38;2.17;;;18.20;58.80;;;;;;5093429;28;20210;-48
2021/05/04 10:23:27;;;;;;;3.22;2.90;;;18.10;58.70;;;;;;5093842;28;20207;-49
2021/05/04 10:25:59;;;;;;;4.95;2.33;;;18.00;59.00;;;;;;5093657;28;20321;-45
2021/05/04 10:28:30;;;;;;;4.22;2.30;;;18.00;58.80;;;;;;5093848;28;20243;-50
2021/05/04 10:30:59;;;;;;;3.15;2.40;;;17.90;58.80;;;;;;5093700;28;20728;-47
2021/05/04 10:33:29;;;;;;;2.95;2.30;;;17.90;59.30;;;;;;5093670;28;20263;-50
2021/05/04 10:35:56;;;;;;;2.97;2.20;;;17.90;59.40;;;;;;5093516;28;20289;-46
2021/05/04 10:38:23;;;;;;;3.50;2.55;;;17.90;59.50;;;;;;5093682;28;20558;-48
2021/05/04 10:41:02;;;;;;;4.05;3.67;;;17.90;59.20;;;;;;5093781;28;20661;-46
2021/05/04 10:43:42;;;;;;;4.00;2.47;;;18.00;59.20;;;;;;5093781;28;20222;-46
2021/05/04 10:46:36;;;;;;;8.32;6.55;;;18.00;59.40;;;;;;5093681;28;20207;-50
2021/05/04 10:49:04;;;;;;;2.72;2.53;;;18.10;59.50;;;;;;5093405;28;20231;-46
2021/05/04 10:51:53;;;;;;;10.75;2.15;;;18.10;59.50;;;;;;5093489;28;20207;-50
2021/05/04 10:54:22;;;;;;;2.38;1.98;;;18.20;59.00;;;;;;5089908;28;20290;-47
2021/05/04 10:56:58;;;;;;;5.60;2.30;;;18.10;59.20;;;;;;5093546;28;20217;-48
2021/05/04 10:59:46;;;;;;;4.60;2.47;;;18.20;59.40;;;;;;5092988;28;20216;-49
2021/05/04 11:02:28;;;;;;;6.07;2.65;;;18.30;58.80;;;;;;5093414;28;20300;-48
2021/05/04 11:04:57;;;;;;;5.38;2.50;;;18.30;58.60;;;;;;5093159;28;20218;-46
2021/05/04 11:07:58;;;;;;;2.47;2.28;;;18.20;58.80;;;;;;5093103;28;20639;-46
2021/05/04 11:10:28;;;;;;;2.47;2.28;;;18.10;59.10;;;;;;5093111;28;20206;-48
2021/05/04 11:12:56;;;;;;;2.20;2.00;;;18.20;59.20;;;;;;5092971;28;20247;-49
2021/05/04 11:15:26;;;;;;;2.75;2.55;;;18.20;59.20;;;;;;5091961;28;20211;-50
2021/05/04 11:17:53;;;;;;;2.15;2.05;;;18.30;59.20;;;;;;5092796;28;20213;-51
2021/05/04 11:20:36;;;;;;;6.45;2.63;;;18.40;58.90;;;;;;5092940;28;20313;-47
2021/05/04 11:23:05;;;;;;;3.58;3.05;;;18.50;59.10;;;;;;5093235;28;20213;-49
2021/05/04 11:25:33;;;;;;;2.63;2.00;;;18.60;59.00;;;;;;5092853;28;20301;-47
2021/05/04 11:28:01;;;;;;;2.60;2.40;;;18.80;58.70;;;;;;5092661;28;20317;-47
2021/05/04 11:30:36;;;;;;;2.33;2.10;;;18.80;58.10;;;;;;5092508;28;20378;-52
2021/05/04 11:33:30;;;;;;;6.40;2.35;;;18.80;58.00;;;;;;5092461;28;20667;-51
2021/05/04 11:35:59;;;;;;;2.25;2.05;;;18.80;57.20;;;;;;5092600;28;20234;-47
2021/05/04 11:38:27;;;;;;;1.77;1.67;;;18.80;58.00;;;;;;5092605;28;20203;-45
2021/05/04 11:40:55;;;;;;;2.15;1.90;;;18.80;57.50;;;;;;5092288;28;20234;-48
2021/05/04 11:43:24;;;;;;;2.63;2.10;;;18.80;57.50;;;;;;5092545;28;20668;-50
2021/05/04 11:45:51;;;;;;;4.88;1.63;;;18.90;57.80;;;;;;5092420;28;20314;-47
2021/05/04 11:48:18;;;;;;;2.55;1.83;;;19.00;57.20;;;;;;5092335;28;20313;-45
2021/05/04 11:50:47;;;;;;;3.00;1.95;;;19.00;56.90;;;;;;5092398;28;20297;-49
2021/05/04 11:53:16;;;;;;;4.13;1.92;;;19.00;56.70;;;;;;5091754;28;20242;-48
2021/05/04 11:55:45;;;;;;;1.63;1.52;;;19.00;56.80;;;;;;5092267;28;20206;-45
2021/05/04 11:58:15;;;;;;;2.40;2.05;;;18.90;56.60;;;;;;5092480;28;20323;-46
2021/05/04 12:00:43;;;;;;;3.22;1.83;;;19.00;56.60;;;;;;5092241;28;20301;-44
2021/05/04 12:03:11;;;;;;;2.03;1.83;;;19.00;56.30;;;;;;5092435;28;20624;-46
2021/05/04 12:05:40;;;;;;;2.50;2.25;;;19.00;55.90;;;;;;5092152;28;20301;-46
2021/05/04 12:08:07;;;;;;;2.05;1.40;;;19.10;55.80;;;;;;5092195;28;20408;-46
2021/05/04 12:10:37;;;;;;;1.77;1.67;;;19.30;55.40;;;;;;5092289;28;20408;-46
2021/05/04 12:13:06;;;;;;;1.38;1.27;;;19.50;55.20;;;;;;5091954;28;20713;-48
2021/05/04 12:15:35;;;;;;;4.82;2.00;;;19.70;54.60;;;;;;5091904;28;20210;-45
2021/05/04 12:18:08;;;;;;;5.75;2.22;;;19.80;53.70;;;;;;5091966;28;20256;-47
2021/05/04 12:20:38;;;;;;;3.95;1.70;;;19.90;52.60;;;;;;5091865;28;20202;-46
2021/05/04 12:23:07;;;;;;;2.17;1.70;;;19.80;52.60;;;;;;5091890;28;20560;-47
2021/05/04 12:25:47;;;;;;;5.65;2.13;;;19.70;52.90;;;;;;5091709;28;20286;-47
2021/05/04 12:28:16;;;;;;;4.00;1.80;;;19.60;53.00;;;;;;5092044;28;20313;-45
2021/05/04 12:30:43;;;;;;;2.47;1.67;;;19.50;52.90;;;;;;5091822;28;20309;-46
2021/05/04 12:33:11;;;;;;;8.00;2.38;;;19.40;52.90;;;;;;5091821;28;20210;-45
2021/05/04 12:35:45;;;;;;;6.22;1.80;;;19.20;52.30;;;;;;5091896;28;20555;-48
2021/05/04 12:38:17;;;;;;;5.70;2.05;;;19.20;52.80;;;;;;5091684;28;20305;-48
2021/05/04 12:41:07;;;;;;;6.57;2.13;;;19.20;52.50;;;;;;5091731;28;20760;-46
2021/05/04 12:43:40;;;;;;;5.75;1.88;;;19.30;52.20;;;;;;5091597;28;20699;-49
2021/05/04 12:46:10;;;;;;;2.47;1.70;;;19.30;52.60;;;;;;5091609;28;20608;-49
2021/05/04 12:48:39;;;;;;;3.30;2.03;;;19.40;52.70;;;;;;5091624;28;20218;-48
2021/05/04 12:51:08;;;;;;;3.75;1.92;;;19.40;51.50;;;;;;5091664;28;20253;-49
2021/05/04 12:53:38;;;;;;;3.65;1.60;;;19.40;51.60;;;;;;5091498;28;20214;-45
2021/05/04 12:56:08;;;;;;;2.42;1.92;;;19.30;51.30;;;;;;5091420;28;20306;-46
2021/05/04 12:58:57;;;;;;;2.80;1.88;;;19.30;51.10;;;;;;5091654;28;20199;-47
2021/05/04 13:01:38;;;;;;;6.72;1.60;;;19.20;50.30;;;;;;5091576;28;20297;-44